Portada
METAR-TAF:

METAR-TAF

Aeroports :

L'Havana, Cuba

latitud: 22-59N, longitud: 082-24W, altitud: 59 m

Observació

L'informe es va fer fa 44 minuts, a les 08:55 UTC
Vent 2 kt del Oest/Sud-Oest
Temperatura 23°C
Humitat 100%
Pressió 1014 hPa
Visibilitat: 9000 m

METAR: MUHA 240855Z 24002KT 9000 NSC 23/23 Q1014

Hora: 05:39 (09:39 UTC)

Pronòstic

L'informe es va fer fa 4 hores i 39 minuts, a les 05:00 UTC
Pronòstic vàlid del 24 a les 06 UTC al 25 a les 06 UTC
Vent 3 kt amb direcció variable
Visibilitat: 9000 m
Escasses núvols a una alçada de 3000 ft
Evolucionant progressivament
l' 24 a les 15 UTC al 24 a les 17 UTC
Vent 8 kt del Sud/Sud-Oest
Temporalment
l' 24 a les 19 UTC al 24 a les 24 UTC
Vent 12 kt amb direcció variable
Visibilitat: 3000 m
Escasses núvols a una alçada de 2000 ft, Cumulonimbus.
Cel ennuvolat a una alçada de 3000 ft
tempesta, pluja

TAF: MUHA 240500Z 2406/2506 VRB03KT 9000 FEW030 BECMG 2415/2417 21008KT TEMPO 2419/2424 VRB12KT 3000 TSRA FEW020CB BKN030

Observacions i pronòstics meteorològics de més de 4000 aeroports (METAR i TAF).

Les estacions disponibles són els punts grocs i vermells al mapa.

Posi el ratolí al punt desitjat per veure el nom de l'estació.

Feu clic per veure les observacions i els pronòstics meteorològics.

Per canviar el mapa: feu clic els botons verds amb una creu de color negre per apropar; al botó verd amb un guió per allunyar la imatge; o en les fletxes verdes per a mapes adjacents.


METAR-TAF: